createdAt,value
2022-08-05T00:01:49.165Z,21.40
2022-08-05T00:12:18.840Z,21.31
2022-08-05T00:22:58.443Z,21.22
2022-08-05T00:34:53.951Z,21.16
2022-08-05T00:44:20.886Z,20.96
2022-08-05T00:54:52.328Z,20.78
2022-08-05T01:05:22.223Z,20.61
2022-08-05T01:15:58.467Z,20.52
2022-08-05T01:26:58.577Z,20.50
2022-08-05T01:37:34.314Z,20.46
2022-08-05T01:48:10.399Z,20.43
2022-08-05T01:58:45.380Z,20.25
2022-08-05T02:09:14.811Z,20.05
2022-08-05T02:19:50.021Z,20.01
2022-08-05T02:30:20.732Z,19.94
2022-08-05T02:40:50.499Z,19.76
2022-08-05T02:51:20.503Z,19.64
2022-08-05T03:02:01.040Z,19.60
2022-08-05T03:12:38.515Z,19.52
2022-08-05T03:23:09.799Z,19.52
2022-08-05T03:33:52.999Z,19.49
2022-08-05T03:44:22.400Z,19.48
2022-08-05T03:55:50.016Z,19.37
2022-08-05T04:05:46.827Z,19.26
2022-08-05T04:16:24.374Z,19.14
2022-08-05T04:26:54.833Z,19.19
2022-08-05T04:38:02.842Z,19.27
2022-08-05T04:48:27.683Z,19.39
2022-08-05T04:58:57.547Z,19.62
2022-08-05T05:09:26.779Z,20.16
2022-08-05T05:19:56.842Z,21.11
2022-08-05T05:30:31.413Z,22.07
2022-08-05T05:41:02.818Z,23.01
2022-08-05T05:51:49.680Z,23.89
2022-08-05T06:02:32.575Z,24.77
2022-08-05T06:13:07.187Z,25.53
2022-08-05T06:23:44.242Z,26.27
2022-08-05T06:34:13.651Z,26.96
2022-08-05T06:44:45.508Z,27.42
2022-08-05T06:55:18.582Z,27.68
2022-08-05T07:05:47.945Z,27.99
2022-08-05T07:18:08.337Z,28.24
2022-08-05T07:27:27.673Z,28.40
2022-08-05T07:38:32.355Z,28.73
2022-08-05T07:49:07.843Z,29.09
2022-08-05T07:59:40.151Z,29.33
2022-08-05T08:10:10.960Z,29.51
2022-08-05T08:20:44.067Z,29.60
2022-08-05T08:31:29.413Z,29.73
2022-08-05T08:42:05.505Z,29.84
2022-08-05T08:52:39.838Z,30.13
2022-08-05T09:03:11.580Z,30.19
2022-08-05T09:14:01.160Z,30.36
2022-08-05T09:24:30.486Z,30.42
2022-08-05T09:35:03.173Z,30.54
2022-08-05T09:46:07.312Z,30.72
2022-08-05T09:56:31.759Z,30.86
2022-08-05T10:07:19.487Z,30.96
2022-08-05T10:18:07.402Z,31.13
2022-08-05T10:28:37.637Z,31.24
2022-08-05T10:39:15.243Z,31.28
2022-08-05T10:50:32.496Z,31.33
2022-08-05T11:01:02.889Z,31.27
2022-08-05T11:11:51.980Z,31.29
2022-08-05T11:22:44.025Z,31.38
2022-08-05T11:33:44.181Z,31.42
2022-08-05T11:44:21.748Z,31.50
2022-08-05T11:55:10.702Z,31.55
2022-08-05T12:05:43.502Z,31.53
2022-08-05T12:16:19.489Z,31.52
2022-08-05T12:26:50.989Z,31.60
2022-08-05T12:37:21.765Z,31.69
2022-08-05T12:48:01.508Z,31.76
2022-08-05T12:58:53.079Z,31.72
2022-08-05T13:09:28.056Z,31.70
2022-08-05T13:20:07.012Z,31.74
2022-08-05T13:30:39.053Z,31.70
2022-08-05T13:41:08.811Z,31.70
2022-08-05T13:51:41.086Z,31.77
2022-08-05T14:02:20.121Z,31.74
2022-08-05T14:12:49.364Z,31.76
2022-08-05T14:23:25.573Z,31.78
2022-08-05T14:33:59.529Z,31.77
2022-08-05T14:44:28.024Z,31.72
2022-08-05T14:54:59.809Z,31.67
2022-08-05T15:06:06.813Z,31.62
2022-08-05T15:16:19.863Z,31.57
2022-08-05T15:26:51.524Z,31.55
2022-08-05T15:38:08.643Z,31.54
2022-08-05T15:48:10.360Z,31.54
2022-08-05T15:58:44.544Z,31.46
2022-08-05T16:09:14.567Z,31.43
2022-08-05T16:20:05.554Z,31.37
2022-08-05T16:30:33.666Z,31.32
2022-08-05T16:42:12.455Z,31.29
2022-08-05T16:51:54.830Z,31.26
2022-08-05T17:02:26.600Z,31.23
2022-08-05T17:12:57.761Z,31.09
2022-08-05T17:24:05.269Z,30.85
2022-08-05T17:34:17.987Z,30.58
2022-08-05T17:44:50.303Z,30.33
2022-08-05T17:55:20.693Z,30.02
2022-08-05T18:05:53.354Z,29.70
2022-08-05T18:16:23.233Z,29.40
2022-08-05T18:26:52.804Z,29.11
2022-08-05T18:37:34.336Z,28.77
2022-08-05T18:48:11.342Z,28.40
2022-08-05T18:58:42.956Z,28.05
2022-08-05T19:09:12.742Z,27.79
2022-08-05T19:19:46.634Z,27.56
2022-08-05T19:30:20.502Z,27.23
2022-08-05T19:40:50.112Z,26.92
2022-08-05T19:52:05.301Z,26.66
2022-08-05T20:02:12.649Z,26.58
2022-08-05T20:12:46.116Z,26.41
2022-08-05T20:23:18.080Z,26.23
2022-08-05T20:33:49.290Z,26.09
2022-08-05T20:44:30.394Z,25.92
2022-08-05T20:55:54.810Z,25.72
2022-08-05T21:05:55.489Z,25.58
2022-08-05T21:16:29.891Z,25.40
2022-08-05T21:27:00.210Z,25.21
2022-08-05T21:37:30.727Z,24.92
2022-08-05T21:48:00.001Z,24.76
2022-08-05T21:58:32.176Z,24.65
2022-08-05T22:09:01.652Z,24.53
2022-08-05T22:20:02.599Z,24.42
2022-08-05T22:30:36.070Z,24.25
2022-08-05T22:41:09.569Z,24.08
2022-08-05T22:52:06.135Z,23.89
2022-08-05T23:02:28.894Z,23.77
2022-08-05T23:12:59.192Z,23.70
2022-08-05T23:23:33.651Z,23.54
2022-08-05T23:34:06.458Z,23.43
2022-08-05T23:44:36.185Z,23.31
2022-08-05T23:55:10.980Z,23.06
